Few Clouds Current Weather (METAR) For Amsterdam Schiphol Airport

All times on the weather descriptions are local

Observed at 21:55 - (11 mins ago)

Few Clouds

17°C

Few Clouds
Clouds: Few Clouds at 2,200ft
Wind: 210° at 11 knots
Visibility: Greater than 10km
QNH: 1014
Dew Point: 13°C
Runways with a headwind: Runway 24, Runway 27, Runways 18L/C/R

Sunrise Today: 06:46
Sunset Today: 20:37

Forecast Weather (TAF) For Amsterdam Schiphol Airport

Issued at 02:00 - (1 day 3 hrs ago)


Runways with a headwind: Unable to determine, wind is clam

Forecast valid until 02:00 on Sunday

METAR/TAF RAW METAR / TAF

EHAM 291955Z 21011KT 9999 FEW022 17/13 Q1014 NOSIG

Weather Widget

Put weather from any of our airports on your website with our weather widget.

Find Another Search

Airport Search


Please Wait Please Wait - Loading
Close
Close

Login

Username:

Password:

Remember Me:

Remember me on this computer

Forgotten your password? Get a reset password sent to your registered e-mail address

Close

User Private Message

Subject:

Message: